Time;durP1;ratioP1;P1;durP2;ratioP2;P2;SDS_P1;SDS_P2;PMS_P1;PMS_P2;Temp;Humidity;BMP_temperature;BMP_pressure;BME280_temperature;BME280_humidity;BME280_pressure;Samples;Min_cycle;Max_cycle;Signal;HPM_P1;HPM_P2
2023/04/26 00:02:26;;;;;;;8.90;3.80;;;;;;;13.67;43.54;102055.28;5030405;28;20394;-71
2023/04/26 00:04:57;;;;;;;9.27;3.47;;;;;;;13.78;44.84;102049.13;5035085;28;20063;-71
2023/04/26 00:07:27;;;;;;;12.80;4.40;;;;;;;14.10;43.60;102053.38;5048831;28;20108;-71
2023/04/26 00:09:53;;;;;;;12.70;5.43;;;;;;;13.50;44.61;102054.47;5063597;28;20020;-71
2023/04/26 00:12:18;;;;;;;11.60;5.47;;;;;;;13.64;44.78;102055.31;5069105;28;20078;-71
2023/04/26 00:14:44;;;;;;;13.47;5.03;;;;;;;13.89;43.72;102053.44;5042957;28;20036;-70
2023/04/26 00:17:10;;;;;;;8.90;4.57;;;;;;;13.68;44.34;102054.44;5032161;28;20121;-70
2023/04/26 00:19:36;;;;;;;11.47;4.37;;;;;;;13.68;44.14;102058.78;5047139;28;20124;-70
2023/04/26 00:22:01;;;;;;;9.67;4.53;;;;;;;13.85;43.56;102045.59;5065481;28;20127;-70
2023/04/26 00:24:27;;;;;;;10.03;4.30;;;;;;;13.65;44.62;102049.16;5050999;28;20115;-70
2023/04/26 00:26:54;;;;;;;10.73;4.27;;;;;;;13.67;44.38;102044.78;5049159;28;20469;-71
2023/04/26 00:29:19;;;;;;;7.97;4.37;;;;;;;13.47;44.41;102049.22;5048226;28;20035;-70
2023/04/26 00:31:45;;;;;;;7.77;5.07;;;;;;;13.34;44.06;102046.59;5063704;28;20028;-70
2023/04/26 00:34:10;;;;;;;13.43;5.33;;;;;;;13.04;44.31;102051.00;5049521;28;20037;-71
2023/04/26 00:36:35;;;;;;;11.17;4.80;;;;;;;13.30;44.51;102047.50;5036930;28;20036;-70
2023/04/26 00:39:01;;;;;;;10.53;4.30;;;;;;;13.18;44.56;102047.50;5033970;28;20393;-70
2023/04/26 00:41:27;;;;;;;9.97;4.20;;;;;;;13.07;44.90;102048.38;5061381;28;20124;-71
2023/04/26 00:43:52;;;;;;;10.30;4.03;;;;;;;13.28;45.25;102051.84;5057214;28;20083;-70
2023/04/26 00:46:17;;;;;;;8.83;4.10;;;;;;;13.15;45.65;102050.16;5046277;28;20025;-70
2023/04/26 00:48:43;;;;;;;6.50;3.30;;;;;;;13.06;45.19;102046.66;5050279;28;20021;-71
2023/04/26 00:51:08;;;;;;;7.80;3.90;;;;;;;13.13;45.07;102049.25;5053950;28;20571;-70
2023/04/26 00:53:34;;;;;;;8.83;4.03;;;;;;;13.13;44.63;102047.50;5059182;28;20460;-71
2023/04/26 00:56:00;;;;;;;7.23;3.70;;;;;;;13.06;45.33;102049.28;5045099;28;20036;-70
2023/04/26 00:58:26;;;;;;;12.63;4.20;;;;;;;13.60;44.00;102043.06;5027676;28;20104;-71
2023/04/26 01:00:52;;;;;;;10.07;3.93;;;;;;;13.27;44.01;102050.13;5035422;28;20029;-70
2023/04/26 01:03:17;;;;;;;10.40;4.10;;;;;;;12.88;44.83;102042.25;5061476;28;20025;-71
2023/04/26 01:05:44;;;;;;;12.90;4.60;;;;;;;12.90;44.75;102037.03;5047057;28;20028;-70
2023/04/26 01:08:10;;;;;;;8.10;3.90;;;;;;;13.11;44.33;102043.16;5042441;28;20041;-71
2023/04/26 01:10:35;;;;;;;11.23;3.83;;;;;;;13.42;43.92;102035.22;5028607;28;20087;-71
2023/04/26 01:13:04;;;;;;;8.80;3.83;;;;;;;13.39;43.92;102041.34;5035898;28;20025;-71
2023/04/26 01:15:32;;;;;;;7.87;3.60;;;;;;;13.38;44.35;102040.50;5047396;28;20024;-71
2023/04/26 01:17:57;;;;;;;16.93;6.83;;;;;;;13.00;45.12;102049.28;5049065;28;20034;-72
2023/04/26 01:20:24;;;;;;;15.30;4.30;;;;;;;12.83;45.02;102030.91;5047667;28;20375;-72
2023/04/26 01:22:50;;;;;;;11.13;4.83;;;;;;;12.83;45.41;102045.78;5041278;28;20524;-70
2023/04/26 01:25:17;;;;;;;8.90;3.57;;;;;;;12.67;44.96;102051.03;5048839;28;20737;-70
2023/04/26 01:27:42;;;;;;;10.50;4.27;;;;;;;12.52;45.85;102048.38;5030556;28;20018;-70
2023/04/26 01:30:08;;;;;;;10.07;4.17;;;;;;;12.35;47.75;102049.25;5028042;28;20024;-70
2023/04/26 01:32:34;;;;;;;10.10;4.83;;;;;;;12.20;46.33;102051.84;5043245;28;20098;-70
2023/04/26 01:34:59;;;;;;;13.37;4.43;;;;;;;12.57;45.94;102049.28;5031759;28;20393;-71
2023/04/26 01:37:25;;;;;;;8.40;4.17;;;;;;;12.34;46.69;102047.47;5028993;28;20029;-71
2023/04/26 01:39:50;;;;;;;8.47;4.53;;;;;;;12.36;45.69;102051.00;5028965;28;20037;-70
2023/04/26 01:42:16;;;;;;;10.83;4.43;;;;;;;12.30;46.91;102055.34;5044732;28;20029;-70
2023/04/26 01:44:41;;;;;;;11.77;4.57;;;;;;;12.35;46.29;102044.00;5036262;28;20041;-71
2023/04/26 01:47:07;;;;;;;13.10;4.40;;;;;;;12.26;46.58;102057.06;5061805;28;20113;-71
2023/04/26 01:49:32;;;;;;;10.33;4.53;;;;;;;12.41;46.11;102042.25;5048144;28;20063;-70
2023/04/26 01:51:58;;;;;;;10.73;4.83;;;;;;;12.57;45.74;102041.41;5043208;28;20157;-69
2023/04/26 01:54:23;;;;;;;14.83;5.10;;;;;;;12.56;45.32;102052.78;5033392;28;20414;-70
2023/04/26 01:56:49;;;;;;;9.13;4.50;;;;;;;12.48;45.63;102050.13;5038839;28;20036;-69
2023/04/26 01:59:14;;;;;;;11.27;4.07;;;;;;;12.29;46.41;102054.44;5051918;28;20020;-70
2023/04/26 02:01:42;;;;;;;10.37;4.33;;;;;;;12.52;46.00;102056.25;5050537;28;20016;-71
2023/04/26 02:04:08;;;;;;;6.97;4.10;;;;;;;12.69;46.01;102046.66;5048860;28;20380;-71
2023/04/26 02:06:33;;;;;;;10.00;4.63;;;;;;;12.32;46.75;102045.72;5045701;28;20029;-71
2023/04/26 02:08:58;;;;;;;7.30;4.00;;;;;;;12.42;46.84;102044.88;5042406;28;20112;-70
2023/04/26 02:11:25;;;;;;;8.13;4.03;;;;;;;12.20;46.10;102049.22;5050219;28;20036;-71
2023/04/26 02:13:51;;;;;;;9.40;3.93;;;;;;;12.36;46.22;102047.47;5055982;28;20031;-71
2023/04/26 02:16:17;;;;;;;9.67;4.10;;;;;;;12.22;46.83;102057.94;5061842;28;20017;-71
2023/04/26 02:18:43;;;;;;;9.23;3.77;;;;;;;12.04;47.29;102053.53;5049163;28;20028;-71
2023/04/26 02:21:10;;;;;;;10.63;3.93;;;;;;;12.17;46.89;102049.19;5030030;28;20187;-70
2023/04/26 02:23:36;;;;;;;11.00;4.50;;;;;;;12.33;46.89;102040.47;5037447;28;21460;-70
2023/04/26 02:26:02;;;;;;;10.70;4.13;;;;;;;12.36;46.04;102043.13;5046535;28;20033;-71
2023/04/26 02:28:27;;;;;;;11.47;3.77;;;;;;;12.25;47.18;102051.84;5047260;28;20028;-70
2023/04/26 02:30:53;;;;;;;9.27;3.60;;;;;;;12.17;46.20;102055.31;5029954;28;20516;-71
2023/04/26 02:33:18;;;;;;;10.90;3.70;;;;;;;12.59;45.51;102047.50;5027013;28;20049;-70
2023/04/26 02:35:43;;;;;;;9.27;3.97;;;;;;;12.59;46.99;102039.66;5031582;28;20445;-70
2023/04/26 02:38:09;;;;;;;8.77;3.70;;;;;;;12.73;47.05;102035.31;5031914;28;20025;-70
2023/04/26 02:40:34;;;;;;;9.87;3.80;;;;;;;12.76;45.72;102034.41;5031725;28;20025;-70
2023/04/26 02:43:00;;;;;;;16.30;4.57;;;;;;;12.65;46.24;102039.66;5041188;28;20017;-70
2023/04/26 02:45:26;;;;;;;15.87;6.17;;;;;;;13.11;45.14;102030.03;5047064;28;20481;-70
2023/04/26 02:47:51;;;;;;;7.87;3.80;;;;;;;13.44;44.78;102034.34;5030397;28;20070;-70
2023/04/26 02:50:16;;;;;;;8.77;3.50;;;;;;;12.87;45.25;102027.41;5045517;28;20388;-70
2023/04/26 02:52:42;;;;;;;11.97;4.00;;;;;;;13.06;45.74;102025.66;5046631;28;20052;-70
2023/04/26 02:55:08;;;;;;;6.57;3.20;;;;;;;13.13;45.18;102029.13;5049725;28;20189;-70
2023/04/26 02:57:33;;;;;;;9.00;3.43;;;;;;;13.14;45.61;102030.88;5031415;28;20025;-70
2023/04/26 02:59:59;;;;;;;12.27;4.07;;;;;;;12.95;46.25;102024.78;5050306;28;20023;-70
2023/04/26 03:02:25;;;;;;;9.57;3.87;;;;;;;12.97;46.53;102025.66;5042284;28;20057;-71
2023/04/26 03:04:50;;;;;;;9.90;3.47;;;;;;;13.51;44.59;102019.44;5056054;28;20107;-70
2023/04/26 03:07:15;;;;;;;8.60;3.63;;;;;;;13.76;43.70;102019.34;5054155;28;20021;-71
2023/04/26 03:09:41;;;;;;;8.20;3.30;;;;;;;13.53;43.60;102017.69;5031451;28;20095;-71
2023/04/26 03:12:07;;;;;;;7.07;4.27;;;;;;;12.96;45.41;102026.53;5044832;28;20102;-72
2023/04/26 03:14:33;;;;;;;8.83;3.83;;;;;;;12.75;45.71;102021.28;5050664;28;20020;-71
2023/04/26 03:16:59;;;;;;;7.73;3.60;;;;;;;13.03;45.90;102017.75;5048952;28;20141;-71
2023/04/26 03:19:25;;;;;;;10.80;3.03;;;;;;;12.50;46.27;102026.53;5048912;28;20025;-71
2023/04/26 03:21:51;;;;;;;12.60;4.13;;;;;;;12.30;46.95;102029.13;5044670;28;20036;-71
2023/04/26 03:24:16;;;;;;;9.67;3.77;;;;;;;12.38;46.09;102017.78;5051729;28;20021;-71
2023/04/26 03:26:42;;;;;;;10.03;3.60;;;;;;;12.22;46.42;102026.47;5049119;28;20063;-70
2023/04/26 03:29:07;;;;;;;8.67;4.33;;;;;;;12.34;47.15;102021.25;5050288;28;20112;-70
2023/04/26 03:31:32;;;;;;;9.17;4.53;;;;;;;12.48;46.50;102025.66;5038023;28;20041;-70
2023/04/26 03:33:58;;;;;;;10.47;3.83;;;;;;;12.34;46.39;102021.25;5029711;28;20388;-70
2023/04/26 03:36:23;;;;;;;8.83;3.40;;;;;;;12.54;46.63;102009.91;5046759;28;20347;-71
2023/04/26 03:38:48;;;;;;;11.63;4.10;;;;;;;12.35;47.22;102017.78;5049887;28;20552;-71
2023/04/26 03:41:14;;;;;;;9.03;3.47;;;;;;;12.51;46.86;102012.53;5033302;28;20021;-71
2023/04/26 03:43:39;;;;;;;14.00;4.00;;;;;;;12.60;45.74;102016.91;5030247;28;20450;-70
2023/04/26 03:46:04;;;;;;;10.93;3.97;;;;;;;12.90;45.31;102013.44;5029154;28;20131;-71
2023/04/26 03:48:30;;;;;;;12.20;3.97;;;;;;;12.82;45.35;102004.69;5045400;28;20064;-73
2023/04/26 03:50:55;;;;;;;13.47;4.17;;;;;;;12.48;46.20;102009.91;5041387;28;20040;-71
2023/04/26 03:53:21;;;;;;;8.73;4.00;;;;;;;12.30;47.67;102008.16;5030368;28;20509;-71
2023/04/26 03:55:46;;;;;;;10.17;4.40;;;;;;;12.35;45.86;102006.41;5030157;28;20037;-71
2023/04/26 03:58:12;;;;;;;8.50;3.83;;;;;;;12.73;46.35;101992.44;5048990;28;20393;-72
2023/04/26 04:00:39;;;;;;;10.17;4.30;;;;;;;12.52;45.93;102004.66;5045274;28;20029;-72
2023/04/26 04:03:05;;;;;;;12.10;4.00;;;;;;;12.53;46.12;101995.06;5045644;28;20032;-71
2023/04/26 04:05:31;;;;;;;10.10;3.67;;;;;;;12.78;46.10;101997.69;5049608;28;20215;-71
2023/04/26 04:07:56;;;;;;;13.17;4.30;;;;;;;12.86;45.79;101998.56;5044376;28;20036;-71
2023/04/26 04:10:22;;;;;;;11.47;4.13;;;;;;;12.50;45.53;102008.16;5052105;28;20389;-71
2023/04/26 04:12:48;;;;;;;9.43;4.30;;;;;;;12.28;47.29;101999.41;5048827;28;20147;-71
2023/04/26 04:15:13;;;;;;;11.23;4.33;;;;;;;12.42;46.60;101999.41;5048809;28;20019;-71
2023/04/26 04:17:39;;;;;;;9.03;3.93;;;;;;;12.12;47.97;102009.00;5050136;28;20400;-71
2023/04/26 04:20:06;;;;;;;15.23;5.43;;;;;;;12.14;47.25;102004.63;5046627;28;20617;-71
2023/04/26 04:22:31;;;;;;;12.27;5.17;;;;;;;12.19;47.83;102009.00;5047837;28;20419;-71
2023/04/26 04:24:58;;;;;;;14.53;5.17;;;;;;;12.10;46.58;102022.06;5058806;28;20022;-71
2023/04/26 04:27:24;;;;;;;10.00;4.37;;;;;;;12.24;48.08;102018.63;5045514;28;20025;-71
2023/04/26 04:29:49;;;;;;;11.40;5.00;;;;;;;12.07;47.77;102026.44;5049902;28;20032;-71
2023/04/26 04:32:16;;;;;;;14.97;4.93;;;;;;;11.89;47.61;102030.72;5049772;28;20496;-71
2023/04/26 04:34:42;;;;;;;11.07;4.97;;;;;;;12.33;47.54;102024.75;5060801;28;20047;-71
2023/04/26 04:37:07;;;;;;;8.57;5.50;;;;;;;12.38;46.92;102023.00;5068067;28;20407;-71
2023/04/26 04:39:33;;;;;;;10.13;5.17;;;;;;;12.66;46.22;102020.41;5048817;28;20029;-71
2023/04/26 04:41:59;;;;;;;13.17;5.33;;;;;;;12.49;47.30;102024.78;5048164;28;20035;-71
2023/04/26 04:44:25;;;;;;;13.07;5.53;;;;;;;12.68;46.58;102021.31;5044965;28;20436;-71
2023/04/26 04:46:51;;;;;;;11.20;5.60;;;;;;;12.25;47.87;102023.84;5050943;28;20493;-71
2023/04/26 04:49:17;;;;;;;13.37;4.87;;;;;;;12.36;47.74;102022.16;5048294;28;20115;-71
2023/04/26 04:51:43;;;;;;;17.60;6.73;;;;;;;12.78;46.83;102021.31;5046589;28;20516;-70
2023/04/26 04:54:16;;;;;;;14.83;6.20;;;;;;;12.96;46.76;102015.16;5049970;28;20137;-72
2023/04/26 04:56:43;;;;;;;14.80;6.23;;;;;;;12.97;46.32;102017.78;5047837;28;20032;-69
2023/04/26 04:59:08;;;;;;;14.00;7.13;;;;;;;12.67;46.74;102018.69;5045026;28;20026;-69
2023/04/26 05:01:35;;;;;;;10.90;6.23;;;;;;;12.59;46.81;102029.16;5036012;28;20385;-70
2023/04/26 05:04:01;;;;;;;8.33;5.17;;;;;;;12.82;47.70;102023.06;5041410;28;20025;-69
2023/04/26 05:06:28;;;;;;;13.60;6.07;;;;;;;12.78;46.71;102026.56;5049855;28;20017;-69
2023/04/26 05:08:55;;;;;;;13.93;5.67;;;;;;;12.61;48.22;102023.91;5035427;28;20377;-70
2023/04/26 05:11:20;;;;;;;16.43;6.10;;;;;;;12.75;47.03;102018.66;5028228;28;20031;-70
2023/04/26 05:13:46;;;;;;;15.40;6.10;;;;;;;12.93;47.25;102018.66;5042327;28;20029;-69
2023/04/26 05:16:11;;;;;;;12.77;5.97;;;;;;;13.12;46.30;102023.88;5049233;28;20037;-70
2023/04/26 05:18:37;;;;;;;12.27;6.23;;;;;;;13.15;46.66;102021.28;5047945;28;20025;-71
2023/04/26 05:21:02;;;;;;;15.30;6.17;;;;;;;13.52;45.79;102019.44;5044265;28;20108;-70
2023/04/26 05:23:27;;;;;;;16.07;6.37;;;;;;;13.79;45.88;102008.81;5048290;28;20029;-70
2023/04/26 05:25:53;;;;;;;16.67;7.37;;;;;;;13.45;46.41;102019.44;5030292;28;20068;-70
2023/04/26 05:28:18;;;;;;;14.80;5.90;;;;;;;13.57;46.99;102019.41;5038967;28;20021;-70
2023/04/26 05:30:45;;;;;;;17.43;7.10;;;;;;;13.80;46.36;102018.47;5062830;28;20017;-70
2023/04/26 05:33:10;;;;;;;16.23;5.87;;;;;;;13.71;46.27;102021.97;5045615;28;20543;-70
2023/04/26 05:35:36;;;;;;;13.13;6.33;;;;;;;14.40;45.65;102023.38;5031555;28;20033;-70
2023/04/26 05:38:01;;;;;;;10.93;5.63;;;;;;;14.27;45.99;102022.56;5030039;28;20117;-70
2023/04/26 05:40:27;;;;;;;15.00;6.37;;;;;;;14.51;45.51;102021.53;5039071;28;20380;-71
2023/04/26 05:42:52;;;;;;;18.13;6.63;;;;;;;14.97;44.89;102030.81;5048371;28;20417;-70
2023/04/26 05:45:17;;;;;;;11.27;6.60;;;;;;;14.89;45.08;102024.75;5047186;28;20017;-70
2023/04/26 05:47:43;;;;;;;19.87;6.50;;;;;;;15.39;45.13;102031.28;5048708;28;20511;-71
2023/04/26 05:50:08;;;;;;;11.87;5.80;;;;;;;15.50;43.63;102030.31;5053373;28;20028;-71
2023/04/26 05:52:34;;;;;;;11.27;6.37;;;;;;;15.56;43.77;102040.75;5030563;28;20148;-70
2023/04/26 05:55:03;;;;;;;16.87;7.00;;;;;;;15.76;44.61;102033.47;5035538;28;20029;-70
2023/04/26 05:57:28;;;;;;;15.40;5.77;;;;;;;16.07;43.46;102030.47;5049072;28;20029;-71
2023/04/26 05:59:54;;;;;;;11.30;4.97;;;;;;;15.92;42.50;102028.03;5048301;28;20535;-71
2023/04/26 06:02:19;;;;;;;12.43;5.43;;;;;;;15.96;42.25;102034.16;5034269;28;20030;-70
2023/04/26 06:04:45;;;;;;;14.50;6.27;;;;;;;15.89;42.43;102041.25;5033520;28;20043;-71
2023/04/26 06:07:10;;;;;;;9.00;5.10;;;;;;;16.07;42.67;102038.41;5046958;28;20044;-71
2023/04/26 06:09:36;;;;;;;8.47;4.57;;;;;;;16.35;41.40;102043.25;5049302;28;20045;-71
2023/04/26 06:12:02;;;;;;;13.80;4.53;;;;;;;16.40;40.36;102048.47;5050139;28;20037;-71
2023/04/26 06:14:28;;;;;;;13.20;5.00;;;;;;;16.48;41.22;102048.34;5046742;28;20040;-71
2023/04/26 06:16:53;;;;;;;9.27;4.67;;;;;;;16.57;40.50;102048.22;5047905;28;20029;-71
2023/04/26 06:19:18;;;;;;;9.30;4.80;;;;;;;16.51;40.14;102053.56;5044205;28;20522;-72
2023/04/26 06:21:44;;;;;;;7.10;3.53;;;;;;;17.33;39.59;102060.16;5034584;28;20057;-71
2023/04/26 06:24:09;;;;;;;10.17;5.37;;;;;;;17.15;38.62;102056.09;5038510;28;20160;-71
2023/04/26 06:26:34;;;;;;;12.50;4.67;;;;;;;16.99;39.07;102050.19;5044689;28;20393;-71
2023/04/26 06:29:00;;;;;;;9.00;4.50;;;;;;;17.10;39.60;102058.78;5028276;28;20396;-72
2023/04/26 06:31:25;;;;;;;8.33;4.43;;;;;;;17.17;38.23;102059.56;5037094;28;20034;-71
2023/04/26 06:33:50;;;;;;;10.87;4.07;;;;;;;17.21;37.84;102061.25;5032055;28;20037;-72
2023/04/26 06:36:16;;;;;;;11.37;3.97;;;;;;;16.83;37.14;102065.38;5035227;28;20508;-72
2023/04/26 06:38:41;;;;;;;5.93;3.17;;;;;;;16.81;37.11;102067.19;5047333;28;20031;-71
2023/04/26 06:41:07;;;;;;;8.73;3.23;;;;;;;16.92;37.96;102060.84;5045706;28;20025;-71
2023/04/26 06:43:33;;;;;;;8.00;2.70;;;;;;;16.32;34.89;102079.34;5049704;28;20442;-71
2023/04/26 06:45:58;;;;;;;9.73;2.13;;;;;;;16.70;36.14;102064.72;5058978;28;20029;-71
2023/04/26 06:48:23;;;;;;;11.80;2.03;;;;;;;16.42;34.99;102060.75;5052543;28;20032;-71
2023/04/26 06:50:49;;;;;;;3.63;1.70;;;;;;;16.73;33.05;102062.91;5049871;28;20032;-71
2023/04/26 06:53:14;;;;;;;9.60;1.80;;;;;;;17.57;33.19;102050.84;5048757;28;20069;-72
2023/04/26 06:55:40;;;;;;;8.57;1.70;;;;;;;16.81;33.63;102056.63;5044763;28;20536;-71
2023/04/26 06:58:05;;;;;;;3.63;1.80;;;;;;;16.79;35.01;102060.16;5044615;28;20063;-71
2023/04/26 07:00:32;;;;;;;9.40;2.50;;;;;;;16.21;34.61;102061.94;5048491;28;20520;-71
2023/04/26 07:02:57;;;;;;;8.47;2.63;;;;;;;17.32;32.92;102064.53;5051282;28;20032;-71
2023/04/26 07:05:23;;;;;;;6.73;2.43;;;;;;;17.16;33.95;102057.81;5050534;28;20055;-72
2023/04/26 07:07:49;;;;;;;7.30;3.07;;;;;;;16.44;35.57;102064.25;5051482;28;20021;-72
2023/04/26 07:10:14;;;;;;;6.87;2.60;;;;;;;16.92;34.22;102054.69;5038802;28;20037;-71
2023/04/26 07:12:39;;;;;;;8.07;2.73;;;;;;;17.43;33.99;102052.03;5030442;28;20040;-72
2023/04/26 07:15:06;;;;;;;5.30;2.30;;;;;;;18.05;32.78;102050.78;5043239;28;20123;-72
2023/04/26 07:17:32;;;;;;;6.93;2.10;;;;;;;17.87;32.94;102053.78;5037249;28;20032;-72
2023/04/26 07:19:57;;;;;;;11.60;2.53;;;;;;;18.42;32.15;102049.94;5041223;28;20047;-72
2023/04/26 07:22:23;;;;;;;3.57;1.73;;;;;;;18.65;32.42;102052.00;5031725;28;20620;-72
2023/04/26 07:24:48;;;;;;;5.77;2.17;;;;;;;17.72;32.56;102062.91;5038089;28;20557;-72
2023/04/26 07:27:13;;;;;;;6.40;2.10;;;;;;;17.91;32.83;102068.69;5061452;28;20063;-72
2023/04/26 07:29:39;;;;;;;5.00;2.17;;;;;;;18.01;30.68;102057.03;5051752;28;20029;-72
2023/04/26 07:32:05;;;;;;;5.40;2.30;;;;;;;18.25;31.62;102067.97;5046109;28;20518;-72
2023/04/26 07:34:31;;;;;;;4.23;2.10;;;;;;;17.46;32.87;102062.53;5046604;28;20533;-72
2023/04/26 07:36:56;;;;;;;8.30;2.33;;;;;;;16.71;35.05;102067.34;5044540;28;20033;-72
2023/04/26 07:39:22;;;;;;;8.77;2.60;;;;;;;16.54;34.98;102074.63;5029173;28;20400;-74
2023/04/26 07:41:47;;;;;;;8.30;2.40;;;;;;;17.42;33.77;102071.41;5048205;28;20028;-72
2023/04/26 07:44:12;;;;;;;6.73;2.10;;;;;;;15.82;35.92;102090.56;5049300;28;20025;-71
2023/04/26 07:46:38;;;;;;;11.00;2.13;;;;;;;15.66;37.21;102084.56;5041235;28;20409;-72
2023/04/26 07:49:03;;;;;;;8.20;2.50;;;;;;;15.27;37.79;102076.19;5037733;28;20056;-71
2023/04/26 07:51:29;;;;;;;6.87;2.63;;;;;;;15.47;39.32;102088.28;5032124;28;20044;-71
2023/04/26 07:53:54;;;;;;;4.80;1.70;;;;;;;15.26;38.15;102090.25;5042671;28;20444;-72
2023/04/26 07:56:20;;;;;;;5.03;1.90;;;;;;;14.79;39.04;102094.16;5050349;28;20104;-71
2023/04/26 07:58:46;;;;;;;5.20;1.57;;;;;;;14.91;38.70;102086.19;5036756;28;20103;-71
2023/04/26 08:01:11;;;;;;;5.30;1.83;;;;;;;15.06;39.15;102098.34;5047351;28;20120;-72
2023/04/26 08:03:37;;;;;;;4.93;1.80;;;;;;;16.65;37.17;102088.56;5046450;28;20025;-73
2023/04/26 08:06:02;;;;;;;6.60;2.13;;;;;;;17.05;35.94;102073.84;5049289;28;20489;-74
2023/04/26 08:08:28;;;;;;;7.83;2.00;;;;;;;17.51;35.61;102085.34;5049131;28;20025;-73
2023/04/26 08:10:57;;;;;;;7.70;2.00;;;;;;;16.36;36.42;102088.97;5050901;28;20020;-73
2023/04/26 08:13:22;;;;;;;6.07;2.10;;;;;;;15.98;35.83;102090.34;5067618;28;20028;-73
2023/04/26 08:15:48;;;;;;;4.90;1.80;;;;;;;17.35;35.53;102093.56;5059181;28;20031;-74
2023/04/26 08:18:13;;;;;;;4.60;1.90;;;;;;;15.46;36.81;102097.09;5048853;28;20025;-73
2023/04/26 08:20:38;;;;;;;2.90;1.40;;;;;;;14.46;39.42;102096.97;5047310;28;20052;-72
2023/04/26 08:23:04;;;;;;;2.60;1.43;;;;;;;14.03;39.66;102098.06;5043472;28;20027;-73
2023/04/26 08:25:30;;;;;;;7.73;1.33;;;;;;;16.09;36.79;102094.63;5048502;28;20055;-72
2023/04/26 08:27:55;;;;;;;3.37;1.33;;;;;;;15.33;36.68;102097.22;5039000;28;20104;-73
2023/04/26 08:30:21;;;;;;;3.63;1.40;;;;;;;15.52;36.48;102103.16;5037062;28;20500;-72
2023/04/26 08:32:46;;;;;;;4.17;1.40;;;;;;;15.64;36.35;102101.28;5041802;28;20032;-72
2023/04/26 08:35:12;;;;;;;7.30;1.57;;;;;;;17.04;34.93;102096.75;5050253;28;20550;-72
2023/04/26 08:37:38;;;;;;;4.70;1.40;;;;;;;15.84;35.60;102096.69;5049172;28;20025;-72
2023/04/26 08:40:10;;;;;;;4.87;1.40;;;;;;;16.59;34.80;102088.63;5048535;28;20031;-72
2023/04/26 08:42:43;;;;;;;3.85;1.30;;;;;;;16.70;34.84;102081.41;5048257;28;20028;-72
2023/04/26 08:45:12;;;;;;;9.75;1.20;;;;;;;16.44;34.43;102095.91;5064597;28;20491;-72
2023/04/26 08:47:43;;;;;;;4.77;1.57;;;;;;;17.02;33.44;102069.50;5048716;28;20025;-72
2023/04/26 08:50:13;;;;;;;2.93;0.90;;;;;;;17.69;32.79;102069.13;5050139;28;20027;-71
2023/04/26 08:52:40;;;;;;;3.13;1.20;;;;;;;17.53;33.15;102078.25;5049703;28;20440;-71
2023/04/26 08:55:08;;;;;;;5.13;1.27;;;;;;;17.62;33.37;102072.78;5048797;28;20033;-72
2023/04/26 08:57:34;;;;;;;2.53;0.93;;;;;;;17.39;32.25;102071.47;5053903;28;20690;-72
2023/04/26 09:00:04;;;;;;;1.43;0.80;;;;;;;18.31;31.45;102078.41;5053316;28;20099;-72
2023/04/26 09:02:30;;;;;;;2.00;0.77;;;;;;;17.06;32.22;102078.22;5044881;28;20512;-71
2023/04/26 09:04:55;;;;;;;5.63;1.70;;;;;;;17.93;31.67;102077.50;5047819;28;20029;-70
2023/04/26 09:07:41;;;;;;;5.50;1.07;;;;;;;17.89;32.37;102075.78;5058645;28;20033;-71
2023/04/26 09:10:08;;;;;;;8.97;1.20;;;;;;;18.41;32.14;102084.34;5047713;28;20115;-71
2023/04/26 09:12:34;;;;;;;2.47;0.90;;;;;;;18.45;31.33;102092.22;5055876;28;20044;-71
2023/04/26 09:15:03;;;;;;;2.83;1.00;;;;;;;16.91;32.21;102087.28;5049475;28;20025;-71
2023/04/26 09:17:40;;;;;;;5.37;1.20;;;;;;;18.33;30.99;102091.59;5044944;28;20021;-71
2023/04/26 09:20:27;;;;;;;4.37;0.93;;;;;;;18.17;32.17;102088.44;5035348;28;20025;-71
2023/04/26 09:23:02;;;;;;;5.47;1.17;;;;;;;19.26;30.51;102087.59;5033050;28;20092;-71
2023/04/26 09:25:29;;;;;;;3.03;1.10;;;;;;;17.60;32.62;102090.47;5071856;28;20028;-71
2023/04/26 09:27:56;;;;;;;7.03;1.20;;;;;;;18.25;31.83;102091.78;5047102;28;20367;-71
2023/04/26 09:30:21;;;;;;;6.07;1.27;;;;;;;17.18;32.17;102093.00;5047851;28;20021;-71
2023/04/26 09:33:02;;;;;;;5.03;1.40;;;;;;;17.64;31.65;102086.88;5047600;28;20089;-71
2023/04/26 09:35:35;;;;;;;2.70;1.20;;;;;;;17.46;32.15;102088.97;5045332;28;20512;-72
2023/04/26 09:38:08;;;;;;;3.33;1.23;;;;;;;17.57;32.10;102079.94;5048597;28;20103;-71
2023/04/26 09:40:40;;;;;;;;;;;;;;;18.58;31.15;102082.19;5046465;28;20060;-71
2023/04/26 09:43:07;;;;;;;5.83;1.13;;;;;;;17.95;31.57;102086.25;5044156;28;20263;-73
2023/04/26 09:45:45;;;;;;;6.17;1.33;;;;;;;18.78;32.16;102081.72;5041696;28;20049;-71
2023/04/26 09:48:25;;;;;;;3.70;1.40;;;;;;;17.83;31.94;102083.84;5047566;28;20028;-72
2023/04/26 09:50:56;;;;;;;6.33;1.57;;;;;;;18.07;30.94;102080.72;5042008;28;20075;-72
2023/04/26 09:53:30;;;;;;;3.80;1.30;;;;;;;18.81;30.79;102078.13;5047631;28;20049;-72
2023/04/26 09:56:06;;;;;;;9.03;1.50;;;;;;;17.58;31.52;102087.84;5049050;28;20044;-71
2023/04/26 09:58:31;;;;;;;5.07;1.47;;;;;;;17.19;31.73;102084.19;5027897;28;20378;-71
2023/04/26 10:00:58;;;;;;;3.63;1.30;;;;;;;15.39;36.39;102097.13;5032927;28;20059;-71
2023/04/26 10:03:24;;;;;;;4.17;2.07;;;;;;;15.64;37.21;102096.03;5042644;28;20240;-71
2023/04/26 10:05:49;;;;;;;7.23;1.70;;;;;;;15.31;37.34;102092.84;5050564;28;20090;-71
2023/04/26 10:08:15;;;;;;;5.83;1.60;;;;;;;15.69;36.74;102092.44;5050256;28;20053;-72
2023/04/26 10:10:41;;;;;;;3.67;1.30;;;;;;;15.41;37.32;102095.38;5047061;28;20043;-72
2023/04/26 10:13:07;;;;;;;6.53;1.30;;;;;;;15.77;36.83;102109.03;5049761;28;20055;-71
2023/04/26 10:15:34;;;;;;;4.80;1.50;;;;;;;14.70;37.95;102105.63;5045145;28;20025;-71
2023/04/26 10:17:59;;;;;;;2.50;1.20;;;;;;;14.88;37.15;102094.09;5046517;28;20083;-71
2023/04/26 10:20:27;;;;;;;4.97;1.30;;;;;;;16.44;34.44;102097.66;5039978;28;20044;-70
2023/04/26 10:23:00;;;;;;;3.57;1.10;;;;;;;16.33;33.23;102097.81;5052553;28;20087;-70
2023/04/26 10:25:37;;;;;;;9.27;1.38;;;;;;;16.51;34.55;102085.25;5051340;28;20036;-70
2023/04/26 10:28:03;;;;;;;2.27;0.90;;;;;;;17.55;31.32;102087.03;5050633;28;20028;-70
2023/04/26 10:30:29;;;;;;;1.73;1.00;;;;;;;17.42;31.47;102089.91;5050207;28;20025;-70
2023/04/26 10:32:54;;;;;;;3.20;1.43;;;;;;;17.66;30.83;102090.34;5052924;28;20037;-70
2023/04/26 10:35:21;;;;;;;5.93;1.33;;;;;;;18.49;30.54;102082.41;5049901;28;20083;-70
2023/04/26 10:37:59;;;;;;;5.20;1.30;;;;;;;18.24;30.20;102084.75;5048545;28;20059;-70
2023/04/26 10:40:26;;;;;;;1.63;1.10;;;;;;;17.89;30.67;102092.53;5044595;28;20025;-70
2023/04/26 10:43:14;;;;;;;2.37;1.20;;;;;;;18.38;30.60;102080.03;5049453;28;20025;-70
2023/04/26 10:45:44;;;;;;;3.93;1.30;;;;;;;18.37;30.91;102075.63;5050561;28;20025;-70
2023/04/26 10:48:16;;;;;;;5.20;1.50;;;;;;;19.74;29.76;102071.25;5029695;28;20026;-71
2023/04/26 10:51:34;;;;;;;5.30;1.60;;;;;;;18.22;29.81;102073.34;5039690;28;20052;-70
2023/04/26 10:53:51;;;;;;;5.07;1.20;;;;;;;18.57;30.61;102063.69;5029450;28;20060;-71
2023/04/26 10:56:22;;;;;;;2.37;1.00;;;;;;;17.90;29.69;102070.47;5059630;28;20029;-70
2023/04/26 10:58:49;;;;;;;4.77;1.20;;;;;;;19.17;27.88;102070.19;5051185;28;20025;-70
2023/04/26 11:01:17;;;;;;;4.23;1.47;;;;;;;19.54;27.65;102058.56;5049442;28;20309;-71
2023/04/26 11:03:55;;;;;;;4.35;1.27;;;;;;;19.64;28.15;102053.88;5050256;28;20040;-71
2023/04/26 11:06:23;;;;;;;2.53;1.63;;;;;;;21.41;26.12;102044.66;5046704;28;20032;-71
2023/04/26 11:08:49;;;;;;;3.83;1.38;;;;;;;21.78;25.26;102043.31;5047460;28;20063;-70
2023/04/26 11:11:18;;;;;;;4.35;1.20;;;;;;;21.29;24.63;102042.44;5035948;28;20120;-70
2023/04/26 11:13:45;;;;;;;2.25;1.20;;;;;;;21.67;24.54;102040.19;5046539;28;20029;-71
2023/04/26 11:16:15;;;;;;;4.03;1.23;;;;;;;21.01;25.60;102036.31;5047465;28;20138;-70
2023/04/26 11:18:45;;;;;;;2.83;1.20;;;;;;;20.60;24.32;102040.34;5051082;28;20110;-71
2023/04/26 11:21:14;;;;;;;4.80;1.05;;;;;;;18.62;25.84;102040.63;5034122;28;20032;-71